createdAt,value
2022-12-01T00:03:02.780Z,101843.40
2022-12-01T00:08:05.939Z,101844.30
2022-12-01T00:13:08.712Z,101844.48
2022-12-01T00:18:11.476Z,101845.49
2022-12-01T00:23:14.194Z,101851.01
2022-12-01T00:28:16.937Z,101853.01
2022-12-01T00:33:19.682Z,101855.14
2022-12-01T00:38:22.463Z,101857.08
2022-12-01T00:43:25.268Z,101856.41
2022-12-01T00:48:28.257Z,101853.98
2022-12-01T00:53:31.551Z,101850.63
2022-12-01T00:58:34.167Z,101846.70
2022-12-01T01:03:36.913Z,101842.24
2022-12-01T01:08:40.737Z,101843.81
2022-12-01T01:13:43.642Z,101841.06
2022-12-01T01:18:47.387Z,101840.09
2022-12-01T01:23:51.591Z,101833.25
2022-12-01T01:28:57.231Z,101830.99
2022-12-01T01:34:00.040Z,101830.25
2022-12-01T01:39:03.067Z,101829.63
2022-12-01T01:44:44.356Z,101825.82
2022-12-01T01:49:47.843Z,101824.63
2022-12-01T01:54:54.798Z,101822.06
2022-12-01T02:00:07.525Z,101818.71
2022-12-01T02:05:17.349Z,101813.64
2022-12-01T02:10:22.906Z,101812.77
2022-12-01T02:15:43.813Z,101811.50
2022-12-01T02:21:09.088Z,101820.95
2022-12-01T02:26:39.750Z,101819.83
2022-12-01T02:31:57.343Z,101824.55
2022-12-01T02:37:08.663Z,101824.24
2022-12-01T02:42:40.268Z,101826.78
2022-12-01T02:47:46.013Z,101825.10
2022-12-01T02:52:49.635Z,101827.88
2022-12-01T02:57:52.374Z,101829.84
2022-12-01T03:03:20.138Z,101830.60
2022-12-01T03:08:29.363Z,101827.55
2022-12-01T03:13:46.196Z,101825.90
2022-12-01T03:19:07.199Z,101820.28
2022-12-01T03:24:24.260Z,101819.50
2022-12-01T03:29:38.733Z,101819.02
2022-12-01T03:35:01.434Z,101815.56
2022-12-01T03:40:10.293Z,101821.02
2022-12-01T03:45:20.133Z,101823.69
2022-12-01T03:50:32.342Z,101826.55
2022-12-01T03:55:41.601Z,101828.84
2022-12-01T04:00:49.911Z,101829.38
2022-12-01T04:05:52.909Z,101831.42
2022-12-01T04:10:55.626Z,101829.59
2022-12-01T04:15:58.333Z,101820.27
2022-12-01T04:21:01.058Z,101817.05
2022-12-01T04:26:05.072Z,101815.89
2022-12-01T04:31:07.909Z,101811.02
2022-12-01T04:36:10.973Z,101812.08
2022-12-01T04:41:14.512Z,101816.00
2022-12-01T04:46:17.297Z,101812.13
2022-12-01T04:51:21.383Z,101811.12
2022-12-01T04:56:24.235Z,101811.39
2022-12-01T05:01:27.661Z,101816.55
2022-12-01T05:06:30.473Z,101816.30
2022-12-01T05:11:33.615Z,101817.98
2022-12-01T05:16:36.528Z,101816.35
2022-12-01T05:21:40.527Z,101818.81
2022-12-01T05:26:44.121Z,101818.34
2022-12-01T05:31:47.259Z,101817.75
2022-12-01T05:36:50.053Z,101816.95
2022-12-01T05:41:53.889Z,101821.63
2022-12-01T05:46:56.630Z,101820.73
2022-12-01T05:51:59.368Z,101822.80
2022-12-01T05:57:02.169Z,101825.45
2022-12-01T06:02:05.020Z,101825.58
2022-12-01T06:07:07.771Z,101824.47
2022-12-01T06:12:10.516Z,101827.95
2022-12-01T06:17:13.254Z,101825.56
2022-12-01T06:22:16.088Z,101828.11
2022-12-01T06:27:18.828Z,101828.14
2022-12-01T06:32:21.701Z,101833.40
2022-12-01T06:37:24.513Z,101830.77
2022-12-01T06:42:29.878Z,101832.81
2022-12-01T06:47:32.642Z,101836.99
2022-12-01T06:52:36.615Z,101834.28
2022-12-01T06:57:39.580Z,101835.95
2022-12-01T07:02:42.597Z,101829.65
2022-12-01T07:07:45.599Z,101830.09
2022-12-01T07:12:48.410Z,101834.63
2022-12-01T07:17:51.170Z,101840.11
2022-12-01T07:22:54.471Z,101834.61
2022-12-01T07:27:57.097Z,101838.55
2022-12-01T07:33:01.314Z,101841.46
2022-12-01T07:38:05.117Z,101844.60
2022-12-01T07:43:07.993Z,101839.84
2022-12-01T07:48:10.889Z,101842.74
2022-12-01T07:53:13.679Z,101839.34
2022-12-01T07:58:17.277Z,101839.95
2022-12-01T08:03:20.683Z,101837.30
2022-12-01T08:08:23.560Z,101839.34
2022-12-01T08:13:26.446Z,101838.98
2022-12-01T08:18:29.178Z,101842.17
2022-12-01T08:23:32.391Z,101843.23
2022-12-01T08:28:36.332Z,101840.67
2022-12-01T08:33:39.163Z,101839.06
2022-12-01T08:38:46.070Z,101838.49
2022-12-01T08:43:57.788Z,101842.39
2022-12-01T08:49:02.726Z,101838.36
2022-12-01T08:54:05.576Z,101845.65
2022-12-01T08:59:09.760Z,101846.09
2022-12-01T09:04:15.935Z,101848.18
2022-12-01T09:09:22.627Z,101843.30
2022-12-01T09:14:25.380Z,101844.94
2022-12-01T09:19:28.825Z,101840.89
2022-12-01T09:24:31.833Z,101837.77
2022-12-01T09:29:35.045Z,101833.27
2022-12-01T09:34:37.796Z,101829.45
2022-12-01T09:39:40.644Z,101824.08
2022-12-01T09:44:49.926Z,101825.14
2022-12-01T09:50:17.001Z,101823.77
2022-12-01T09:55:23.460Z,101815.16
2022-12-01T10:00:30.465Z,101813.71
2022-12-01T10:06:24.563Z,101813.38
2022-12-01T10:11:26.000Z,101814.55
2022-12-01T10:16:46.585Z,101814.55
2022-12-01T10:21:55.484Z,101814.64
2022-12-01T10:27:31.748Z,101811.08
2022-12-01T10:32:55.372Z,101808.27
2022-12-01T10:38:03.175Z,101806.83
2022-12-01T10:43:13.144Z,101797.40
2022-12-01T10:48:22.344Z,101796.29
2022-12-01T10:53:33.792Z,101796.12
2022-12-01T10:58:58.401Z,101796.11
2022-12-01T11:04:01.875Z,101794.82
2022-12-01T11:09:20.260Z,101796.94
2022-12-01T11:14:53.412Z,101793.73
2022-12-01T11:19:56.698Z,101791.19
2022-12-01T11:25:00.952Z,101789.04
2022-12-01T11:30:20.242Z,101786.52
2022-12-01T11:35:26.163Z,101782.24
2022-12-01T11:40:36.440Z,101780.36
2022-12-01T11:45:40.540Z,101781.65
2022-12-01T11:50:59.802Z,101780.55
2022-12-01T11:56:30.191Z,101774.92
2022-12-01T12:01:57.022Z,101771.77
2022-12-01T12:07:21.216Z,101771.27
2022-12-01T12:12:49.710Z,101762.97
2022-12-01T12:18:14.167Z,101766.99
2022-12-01T12:23:31.194Z,101770.02
2022-12-01T12:28:36.986Z,101764.14
2022-12-01T12:33:55.803Z,101762.39
2022-12-01T12:39:03.400Z,101757.63
2022-12-01T12:44:31.058Z,101756.46
2022-12-01T12:49:39.667Z,101749.84
2022-12-01T12:54:48.558Z,101744.94
2022-12-01T12:59:59.650Z,101743.88
2022-12-01T13:05:38.922Z,101738.95
2022-12-01T13:10:48.529Z,101732.18
2022-12-01T13:15:54.741Z,101728.64
2022-12-01T13:20:58.384Z,101727.55
2022-12-01T13:26:05.449Z,101725.05
2022-12-01T13:31:11.770Z,101722.77
2022-12-01T13:36:45.188Z,101725.68
2022-12-01T13:41:39.653Z,101724.92
2022-12-01T13:46:42.837Z,101724.09
2022-12-01T13:52:22.847Z,101727.15
2022-12-01T13:57:28.434Z,101728.25
2022-12-01T14:02:33.696Z,101725.63
2022-12-01T14:07:38.352Z,101725.00
2022-12-01T14:12:45.595Z,101723.73
2022-12-01T14:17:59.379Z,101717.59
2022-12-01T14:23:04.175Z,101716.52
2022-12-01T14:28:15.943Z,101709.87
2022-12-01T14:33:57.907Z,101709.96
2022-12-01T14:39:00.609Z,101708.23
2022-12-01T14:44:12.447Z,101702.86
2022-12-01T14:49:40.819Z,101703.71
2022-12-01T14:54:46.966Z,101699.83
2022-12-01T15:00:04.845Z,101705.28
2022-12-01T15:05:18.750Z,101705.05
2022-12-01T15:10:29.237Z,101704.19
2022-12-01T15:15:31.994Z,101701.23
2022-12-01T15:20:41.321Z,101702.09
2022-12-01T15:25:47.858Z,101695.19
2022-12-01T15:30:53.622Z,101695.73
2022-12-01T15:35:57.754Z,101698.94
2022-12-01T15:46:30.989Z,101703.16
2022-12-01T15:51:42.282Z,101698.10
2022-12-01T15:56:51.916Z,101700.55
2022-12-01T16:01:54.831Z,101701.86
2022-12-01T16:07:05.751Z,101695.20
2022-12-01T16:12:14.611Z,101697.91
2022-12-01T16:17:17.565Z,101695.62
2022-12-01T16:22:22.391Z,101696.38
2022-12-01T16:27:28.254Z,101694.96
2022-12-01T16:32:35.538Z,101700.83
2022-12-01T16:37:38.251Z,101705.36
2022-12-01T16:42:41.037Z,101706.20
2022-12-01T16:47:45.741Z,101704.95
2022-12-01T16:52:52.025Z,101709.84
2022-12-01T16:57:55.507Z,101716.47
2022-12-01T17:02:58.658Z,101712.73
2022-12-01T17:08:02.001Z,101709.82
2022-12-01T17:13:04.862Z,101717.60
2022-12-01T17:18:07.588Z,101721.42
2022-12-01T17:23:10.648Z,101713.90
2022-12-01T17:28:13.381Z,101712.19
2022-12-01T17:33:16.216Z,101706.06
2022-12-01T17:38:18.968Z,101701.77
2022-12-01T17:43:23.258Z,101694.97
2022-12-01T17:48:26.236Z,101698.19
2022-12-01T17:53:29.012Z,101699.29
2022-12-01T17:58:43.408Z,101700.31
2022-12-01T18:03:48.646Z,101703.67
2022-12-01T18:08:52.067Z,101700.66
2022-12-01T18:13:54.853Z,101699.65
2022-12-01T18:18:59.198Z,101697.17
2022-12-01T18:24:04.166Z,101689.83
2022-12-01T18:29:11.976Z,101694.88
2022-12-01T18:34:14.760Z,101702.61
2022-12-01T18:39:18.094Z,101698.58
2022-12-01T18:44:20.746Z,101699.16
2022-12-01T18:49:23.909Z,101702.17
2022-12-01T18:54:27.248Z,101710.02
2022-12-01T18:59:30.576Z,101706.77
2022-12-01T19:04:33.650Z,101709.88
2022-12-01T19:09:36.441Z,101703.83
2022-12-01T19:14:39.167Z,101703.61
2022-12-01T19:19:41.886Z,101704.81
2022-12-01T19:24:49.832Z,101708.45
2022-12-01T19:29:54.081Z,101712.00
2022-12-01T19:34:57.260Z,101712.41
2022-12-01T19:39:59.942Z,101707.57
2022-12-01T19:45:02.719Z,101707.66
2022-12-01T19:50:06.293Z,101704.57
2022-12-01T19:55:09.353Z,101702.99
2022-12-01T20:00:12.951Z,101704.08
2022-12-01T20:05:15.910Z,101704.47
2022-12-01T20:10:20.443Z,101710.61
2022-12-01T20:15:23.219Z,101715.22
2022-12-01T20:20:26.044Z,101705.58
2022-12-01T20:25:28.848Z,101704.67
2022-12-01T20:30:31.646Z,101701.35
2022-12-01T20:35:34.553Z,101702.39
2022-12-01T20:40:37.282Z,101705.33
2022-12-01T20:45:40.171Z,101709.25
2022-12-01T20:50:43.046Z,101708.41
2022-12-01T20:55:45.955Z,101711.15
2022-12-01T21:00:49.251Z,101710.81
2022-12-01T21:05:51.929Z,101710.83
2022-12-01T21:10:54.711Z,101717.80
2022-12-01T21:16:03.602Z,101720.39
2022-12-01T21:21:30.317Z,101724.95
2022-12-01T21:26:33.210Z,101722.48
2022-12-01T21:31:36.982Z,101723.24
2022-12-01T21:36:39.731Z,101717.92
2022-12-01T21:41:42.523Z,101718.49
2022-12-01T21:46:46.406Z,101718.99
2022-12-01T21:51:52.105Z,101724.86
2022-12-01T21:56:58.068Z,101725.08
2022-12-01T22:02:08.013Z,101721.70
2022-12-01T22:07:15.035Z,101715.11
2022-12-01T22:12:28.747Z,101714.55
2022-12-01T22:17:31.496Z,101711.21
2022-12-01T22:22:36.621Z,101711.84
2022-12-01T22:27:39.740Z,101710.96
2022-12-01T22:33:03.778Z,101710.66
2022-12-01T22:38:06.484Z,101706.73
2022-12-01T22:43:18.267Z,101708.10
2022-12-01T22:48:27.268Z,101704.88
2022-12-01T22:53:31.246Z,101698.61
2022-12-01T22:58:41.125Z,101697.48
2022-12-01T23:03:43.940Z,101693.45
2022-12-01T23:08:46.697Z,101690.04
2022-12-01T23:13:49.411Z,101681.03
2022-12-01T23:18:52.400Z,101683.69
2022-12-01T23:23:55.260Z,101682.55
2022-12-01T23:28:59.322Z,101685.73
2022-12-01T23:34:02.063Z,101684.42
2022-12-01T23:39:11.813Z,101688.14
2022-12-01T23:44:24.122Z,101686.66
2022-12-01T23:49:33.259Z,101680.20
2022-12-01T23:54:38.327Z,101680.76
2022-12-01T23:59:41.111Z,101680.91
